createdAt,value
2022-12-12T00:01:58.377Z,0.24
2022-12-12T00:04:04.441Z,0.23
2022-12-12T00:06:09.299Z,0.25
2022-12-12T00:08:14.011Z,0.23
2022-12-12T00:10:18.826Z,0.24
2022-12-12T00:12:23.467Z,0.22
2022-12-12T00:14:28.306Z,0.22
2022-12-12T00:16:33.031Z,0.20
2022-12-12T00:18:38.515Z,0.19
2022-12-12T00:20:43.153Z,0.17
2022-12-12T00:22:47.883Z,0.17
2022-12-12T00:24:52.662Z,0.18
2022-12-12T00:26:57.341Z,0.19
2022-12-12T00:29:03.162Z,0.17
2022-12-12T00:31:07.912Z,0.14
2022-12-12T00:33:12.586Z,0.14
2022-12-12T00:35:17.349Z,0.14
2022-12-12T00:37:22.028Z,0.16
2022-12-12T00:39:26.685Z,0.17
2022-12-12T00:41:31.396Z,0.18
2022-12-12T00:43:36.166Z,0.19
2022-12-12T00:45:41.257Z,0.20
2022-12-12T00:47:45.943Z,0.20
2022-12-12T00:49:50.577Z,0.22
2022-12-12T00:51:55.212Z,0.22
2022-12-12T00:54:00.580Z,0.26
2022-12-12T00:56:05.647Z,0.27
2022-12-12T00:58:10.668Z,0.28
2022-12-12T01:00:16.765Z,0.29
2022-12-12T01:02:27.818Z,0.30
2022-12-12T01:04:33.167Z,0.31
2022-12-12T01:06:37.872Z,0.28
2022-12-12T01:08:42.930Z,0.25
2022-12-12T01:10:47.643Z,0.22
2022-12-12T01:12:52.386Z,0.20
2022-12-12T01:14:57.199Z,0.18
2022-12-12T01:17:01.868Z,0.19
2022-12-12T01:19:06.703Z,0.19
2022-12-12T01:21:12.353Z,0.18
2022-12-12T01:23:17.347Z,0.18
2022-12-12T01:25:22.460Z,0.18
2022-12-12T01:27:27.668Z,0.16
2022-12-12T01:29:33.002Z,0.09
2022-12-12T01:31:37.819Z,0.01
2022-12-12T01:33:43.076Z,-0.03
2022-12-12T01:35:47.620Z,-0.06
2022-12-12T01:37:52.559Z,-0.08
2022-12-12T01:39:57.310Z,-0.12
2022-12-12T01:42:02.005Z,-0.16
2022-12-12T01:44:42.856Z,-0.19
2022-12-12T01:46:47.556Z,-0.22
2022-12-12T01:48:55.542Z,-0.26
2022-12-12T01:51:02.719Z,-0.28
2022-12-12T01:53:07.767Z,-0.29
2022-12-12T01:55:17.256Z,-0.30
2022-12-12T01:57:26.366Z,-0.30
2022-12-12T01:59:33.355Z,-0.30
2022-12-12T02:01:39.373Z,-0.29
2022-12-12T02:03:45.609Z,-0.31
2022-12-12T02:05:54.906Z,-0.32
2022-12-12T02:08:01.982Z,-0.37
2022-12-12T02:10:08.100Z,-0.41
2022-12-12T02:12:15.169Z,-0.46
2022-12-12T02:14:24.068Z,-0.50
2022-12-12T02:16:45.725Z,-0.51
2022-12-12T02:18:57.607Z,-0.54
2022-12-12T02:21:12.011Z,-0.54
2022-12-12T02:23:55.650Z,-0.56
2022-12-12T02:26:20.475Z,-0.61
2022-12-12T02:28:50.119Z,-0.65
2022-12-12T02:31:13.884Z,-0.68
2022-12-12T02:33:28.237Z,-0.72
2022-12-12T02:35:41.187Z,-0.74
2022-12-12T02:37:53.424Z,-0.77
2022-12-12T02:40:04.834Z,-0.79
2022-12-12T02:42:17.293Z,-0.81
2022-12-12T02:44:29.979Z,-0.86
2022-12-12T02:46:42.942Z,-0.85
2022-12-12T02:48:54.441Z,-0.84
2022-12-12T02:51:02.128Z,-0.83
2022-12-12T02:53:07.446Z,-0.81
2022-12-12T02:55:12.457Z,-0.79
2022-12-12T02:57:20.008Z,-0.77
2022-12-12T02:59:29.069Z,-0.78
2022-12-12T03:01:44.135Z,-0.79
2022-12-12T03:03:54.992Z,-0.80
2022-12-12T03:06:14.164Z,-0.81
2022-12-12T03:08:35.642Z,-0.81
2022-12-12T03:10:53.125Z,-0.84
2022-12-12T03:13:08.326Z,-0.84
2022-12-12T03:15:20.057Z,-0.87
2022-12-12T03:17:32.856Z,-0.87
2022-12-12T03:19:44.192Z,-0.88
2022-12-12T03:21:57.509Z,-0.87
2022-12-12T03:24:07.282Z,-0.85
2022-12-12T03:26:16.293Z,-0.84
2022-12-12T03:28:27.315Z,-0.85
2022-12-12T03:30:37.556Z,-0.87
2022-12-12T03:32:46.874Z,-0.89
2022-12-12T03:34:56.407Z,-0.91
2022-12-12T03:37:07.075Z,-0.91
2022-12-12T03:39:18.328Z,-0.92
2022-12-12T03:41:26.025Z,-0.91
2022-12-12T03:43:33.954Z,-0.94
2022-12-12T03:45:44.857Z,-0.97
2022-12-12T03:47:57.152Z,-0.98
2022-12-12T03:50:06.241Z,-1.00
2022-12-12T03:52:15.470Z,-1.00
2022-12-12T03:54:24.502Z,-0.98
2022-12-12T03:56:34.535Z,-0.97
2022-12-12T03:58:46.955Z,-0.93
2022-12-12T04:00:55.274Z,-0.90
2022-12-12T04:03:09.337Z,-0.87
2022-12-12T04:05:20.335Z,-0.84
2022-12-12T04:07:29.984Z,-0.81
2022-12-12T04:09:35.071Z,-0.80
2022-12-12T04:11:44.854Z,-0.79
2022-12-12T04:14:01.519Z,-0.75
2022-12-12T04:16:11.721Z,-0.74
2022-12-12T04:18:22.659Z,-0.69
2022-12-12T04:20:32.668Z,-0.67
2022-12-12T04:22:42.491Z,-0.66
2022-12-12T04:24:52.902Z,-0.66
2022-12-12T04:27:04.153Z,-0.64
2022-12-12T04:29:35.015Z,-0.63
2022-12-12T04:31:46.671Z,-0.63
2022-12-12T04:33:56.376Z,-0.60
2022-12-12T04:36:02.639Z,-0.58
2022-12-12T04:38:10.660Z,-0.55
2022-12-12T04:40:20.345Z,-0.54
2022-12-12T04:42:30.450Z,-0.52
2022-12-12T04:44:38.322Z,-0.51
2022-12-12T04:46:44.748Z,-0.51
2022-12-12T04:48:53.925Z,-0.50
2022-12-12T04:51:00.823Z,-0.48
2022-12-12T04:53:16.591Z,-0.45
2022-12-12T04:55:27.711Z,-0.45
2022-12-12T04:57:38.001Z,-0.46
2022-12-12T04:59:42.762Z,-0.49
2022-12-12T05:01:53.835Z,-0.49
2022-12-12T05:04:01.968Z,-0.50
2022-12-12T05:06:09.992Z,-0.53
2022-12-12T05:08:21.507Z,-0.54
2022-12-12T05:10:26.528Z,-0.58
2022-12-12T05:12:38.755Z,-0.59
2022-12-12T05:14:43.527Z,-0.58
2022-12-12T05:16:50.239Z,-0.61
2022-12-12T05:18:55.100Z,-0.62
2022-12-12T05:20:59.815Z,-0.62
2022-12-12T05:23:04.442Z,-0.64
2022-12-12T05:25:10.653Z,-0.66
2022-12-12T05:27:15.507Z,-0.67
2022-12-12T05:29:20.094Z,-0.67
2022-12-12T05:31:25.010Z,-0.68
2022-12-12T05:33:29.590Z,-0.69
2022-12-12T05:35:34.217Z,-0.70
2022-12-12T05:37:39.027Z,-0.70
2022-12-12T05:39:43.773Z,-0.74
2022-12-12T05:41:48.416Z,-0.75
2022-12-12T05:43:53.083Z,-0.77
2022-12-12T05:45:57.993Z,-0.79
2022-12-12T05:48:02.642Z,-0.77
2022-12-12T05:50:08.624Z,-0.73
2022-12-12T05:52:13.334Z,-0.73
2022-12-12T05:54:18.050Z,-0.71
2022-12-12T05:56:22.755Z,-0.69
2022-12-12T05:58:27.432Z,-0.71
2022-12-12T06:00:32.367Z,-0.72
2022-12-12T06:02:37.075Z,-0.74
2022-12-12T06:04:42.142Z,-0.75
2022-12-12T06:06:47.034Z,-0.77
2022-12-12T06:08:51.704Z,-0.79
2022-12-12T06:10:56.470Z,-0.82
2022-12-12T06:13:01.174Z,-0.83
2022-12-12T06:15:06.886Z,-0.82
2022-12-12T06:17:11.564Z,-0.81
2022-12-12T06:19:17.728Z,-0.79
2022-12-12T06:21:22.661Z,-0.79
2022-12-12T06:23:27.365Z,-0.86
2022-12-12T06:25:32.200Z,-0.95
2022-12-12T06:27:36.926Z,-1.01
2022-12-12T06:29:41.666Z,-1.07
2022-12-12T06:31:46.606Z,-1.13
2022-12-12T06:33:51.350Z,-1.15
2022-12-12T06:36:07.972Z,-1.14
2022-12-12T06:38:12.746Z,-1.16
2022-12-12T06:40:17.492Z,-1.15
2022-12-12T06:42:22.316Z,-1.19
2022-12-12T06:44:27.062Z,-1.23
2022-12-12T06:46:31.944Z,-1.29
2022-12-12T06:48:37.222Z,-1.34
2022-12-12T06:50:42.999Z,-1.35
2022-12-12T06:52:47.766Z,-1.39
2022-12-12T06:54:52.605Z,-1.41
2022-12-12T06:56:57.236Z,-1.43
2022-12-12T06:59:01.916Z,-1.44
2022-12-12T07:01:07.061Z,-1.46
2022-12-12T07:03:13.363Z,-1.45
2022-12-12T07:05:18.404Z,-1.43
2022-12-12T07:07:22.997Z,-1.44
2022-12-12T07:09:27.780Z,-1.43
2022-12-12T07:11:32.938Z,-1.42
2022-12-12T07:13:37.887Z,-1.40
2022-12-12T07:15:46.216Z,-1.39
2022-12-12T07:17:53.023Z,-1.41
2022-12-12T07:19:57.710Z,-1.40
2022-12-12T07:22:09.140Z,-1.39
2022-12-12T07:24:14.266Z,-1.39
2022-12-12T07:26:20.849Z,-1.42
2022-12-12T07:28:25.738Z,-1.45
2022-12-12T07:30:30.370Z,-1.41
2022-12-12T07:32:35.145Z,-1.39
2022-12-12T07:34:39.824Z,-1.39
2022-12-12T07:36:44.649Z,-1.39
2022-12-12T07:38:49.528Z,-1.41
2022-12-12T07:40:54.395Z,-1.40
2022-12-12T07:43:00.638Z,-1.39
2022-12-12T07:45:06.450Z,-1.39
2022-12-12T07:47:11.219Z,-1.39
2022-12-12T07:49:16.043Z,-1.35
2022-12-12T07:51:21.809Z,-1.32
2022-12-12T07:53:26.824Z,-1.30
2022-12-12T07:55:31.523Z,-1.27
2022-12-12T07:57:36.523Z,-1.31
2022-12-12T07:59:41.387Z,-1.31
2022-12-12T08:01:46.189Z,-1.36
2022-12-12T08:03:51.372Z,-1.36
2022-12-12T08:05:56.112Z,-1.36
2022-12-12T08:08:03.494Z,-1.34
2022-12-12T08:10:09.255Z,-1.30
2022-12-12T08:12:14.018Z,-1.23
2022-12-12T08:14:18.798Z,-1.22
2022-12-12T08:16:25.982Z,-1.18
2022-12-12T08:18:31.134Z,-1.13
2022-12-12T08:20:38.534Z,-1.11
2022-12-12T08:22:44.635Z,-1.06
2022-12-12T08:24:49.889Z,-1.01
2022-12-12T08:26:55.228Z,-0.96
2022-12-12T08:29:00.519Z,-0.96
2022-12-12T08:31:05.563Z,-0.95
2022-12-12T08:33:10.437Z,-0.90
2022-12-12T08:35:15.587Z,-0.88
2022-12-12T08:37:20.628Z,-0.85
2022-12-12T08:39:25.540Z,-0.78
2022-12-12T08:41:30.327Z,-0.70
2022-12-12T08:43:35.661Z,-0.68
2022-12-12T08:45:40.583Z,-0.65
2022-12-12T08:47:45.465Z,-0.59
2022-12-12T08:49:50.335Z,-0.55
2022-12-12T08:51:55.024Z,-0.53
2022-12-12T08:53:59.992Z,-0.53
2022-12-12T08:56:05.440Z,-0.53
2022-12-12T08:58:10.501Z,-0.53
2022-12-12T09:00:17.083Z,-0.53
2022-12-12T09:02:21.937Z,-0.52
2022-12-12T09:04:26.730Z,-0.49
2022-12-12T09:06:31.414Z,-0.45
2022-12-12T09:08:36.874Z,-0.37
2022-12-12T09:10:42.974Z,-0.30
2022-12-12T09:12:48.052Z,-0.29
2022-12-12T09:14:52.939Z,-0.26
2022-12-12T09:16:57.594Z,-0.24
2022-12-12T09:19:02.437Z,-0.24
2022-12-12T09:21:07.573Z,-0.28
2022-12-12T09:23:12.275Z,-0.32
2022-12-12T09:25:18.197Z,-0.32
2022-12-12T09:27:22.855Z,-0.30
2022-12-12T09:29:27.656Z,-0.27
2022-12-12T09:31:32.486Z,-0.23
2022-12-12T09:33:37.665Z,-0.18
2022-12-12T09:35:42.802Z,-0.13
2022-12-12T09:37:47.523Z,-0.10
2022-12-12T09:39:53.898Z,-0.10
2022-12-12T09:42:08.360Z,-0.08
2022-12-12T09:44:15.214Z,-0.07
2022-12-12T09:46:30.756Z,-0.08
2022-12-12T09:48:42.341Z,-0.07
2022-12-12T09:50:49.040Z,-0.02
2022-12-12T09:52:55.201Z,0.02
2022-12-12T09:55:02.593Z,0.06
2022-12-12T09:57:19.409Z,0.12
2022-12-12T09:59:32.645Z,0.18
2022-12-12T10:01:46.654Z,0.29
2022-12-12T10:04:06.087Z,0.33
2022-12-12T10:06:36.631Z,0.37
2022-12-12T10:08:47.796Z,0.42
2022-12-12T10:10:55.943Z,0.41
2022-12-12T10:13:02.373Z,0.40
2022-12-12T10:15:18.044Z,0.40
2022-12-12T10:17:26.644Z,0.40
2022-12-12T10:19:34.343Z,0.44
2022-12-12T10:21:41.192Z,0.45
2022-12-12T10:23:48.972Z,0.47
2022-12-12T10:25:57.126Z,0.49
2022-12-12T10:28:09.795Z,0.48
2022-12-12T10:30:20.058Z,0.41
2022-12-12T10:32:41.716Z,0.37
2022-12-12T10:34:58.453Z,0.35
2022-12-12T10:37:21.471Z,0.34
2022-12-12T10:39:35.736Z,0.32
2022-12-12T10:41:46.881Z,0.28
2022-12-12T10:43:59.963Z,0.25
2022-12-12T10:46:28.040Z,0.24
2022-12-12T10:48:33.749Z,0.22
2022-12-12T10:50:42.561Z,0.21
2022-12-12T10:52:48.025Z,0.21
2022-12-12T10:54:58.147Z,0.18
2022-12-12T10:57:20.081Z,0.23
2022-12-12T10:59:25.090Z,0.33
2022-12-12T11:04:02.103Z,0.44
2022-12-12T11:06:12.589Z,0.45
2022-12-12T11:08:28.161Z,0.43
2022-12-12T11:10:35.183Z,0.37
2022-12-12T11:12:40.059Z,0.35
2022-12-12T11:14:49.449Z,0.31
2022-12-12T11:16:54.229Z,0.29
2022-12-12T11:19:04.445Z,0.31
2022-12-12T11:21:11.255Z,0.33
2022-12-12T11:23:20.994Z,0.36
2022-12-12T11:25:29.241Z,0.35
2022-12-12T11:27:38.205Z,0.40
2022-12-12T11:29:47.411Z,0.48
2022-12-12T11:31:52.227Z,0.52
2022-12-12T11:33:59.007Z,0.51
2022-12-12T11:36:04.145Z,0.50
2022-12-12T11:38:18.196Z,0.46
2022-12-12T11:40:26.206Z,0.44
2022-12-12T11:42:32.371Z,0.41
2022-12-12T11:44:38.691Z,0.37
2022-12-12T11:46:43.521Z,0.38
2022-12-12T11:48:58.724Z,0.40
2022-12-12T11:51:03.977Z,0.44
2022-12-12T11:53:10.559Z,0.44
2022-12-12T11:55:18.116Z,0.40
2022-12-12T11:57:43.466Z,0.40
2022-12-12T12:00:02.710Z,0.43
2022-12-12T12:02:43.992Z,0.44
2022-12-12T12:04:57.950Z,0.46
2022-12-12T12:07:20.325Z,0.51
2022-12-12T12:09:40.455Z,0.56
2022-12-12T12:11:54.341Z,0.58
2022-12-12T12:14:27.266Z,0.55
2022-12-12T12:16:41.843Z,0.57
2022-12-12T12:19:02.759Z,0.59
2022-12-12T12:21:27.253Z,0.56
2022-12-12T12:23:45.112Z,0.50
2022-12-12T12:25:59.652Z,0.45
2022-12-12T12:28:23.849Z,0.43
2022-12-12T12:30:34.447Z,0.43
2022-12-12T12:32:53.952Z,0.39
2022-12-12T12:35:15.059Z,0.35
2022-12-12T12:37:35.187Z,0.35
2022-12-12T12:39:56.812Z,0.35
2022-12-12T12:42:15.184Z,0.31
2022-12-12T12:44:33.214Z,0.26
2022-12-12T12:46:47.371Z,0.21
2022-12-12T12:48:57.785Z,0.20
2022-12-12T12:51:08.821Z,0.21
2022-12-12T12:53:24.283Z,0.21
2022-12-12T12:55:35.208Z,0.20
2022-12-12T12:57:43.264Z,0.16
2022-12-12T12:59:51.128Z,0.12
2022-12-12T13:01:58.969Z,0.10
2022-12-12T13:04:12.210Z,0.07
2022-12-12T13:06:22.927Z,0.02
2022-12-12T13:08:31.619Z,0.01
2022-12-12T13:10:40.321Z,0.06
2022-12-12T13:12:50.135Z,0.12
2022-12-12T13:14:58.263Z,0.13
2022-12-12T13:17:05.362Z,0.16
2022-12-12T13:19:16.830Z,0.16
2022-12-12T13:21:31.933Z,0.19
2022-12-12T13:23:49.581Z,0.23
2022-12-12T13:25:58.446Z,0.20
2022-12-12T13:28:11.003Z,0.17
2022-12-12T13:30:20.854Z,0.14
2022-12-12T13:32:48.145Z,0.08
2022-12-12T13:34:56.799Z,0.06
2022-12-12T13:37:04.860Z,0.02
2022-12-12T13:39:22.352Z,-0.02
2022-12-12T13:41:27.153Z,-0.07
2022-12-12T13:43:43.877Z,-0.11
2022-12-12T13:45:48.772Z,-0.11
2022-12-12T13:48:05.188Z,-0.13
2022-12-12T13:50:22.261Z,-0.15
2022-12-12T13:52:30.390Z,-0.22
2022-12-12T13:54:55.852Z,-0.24
2022-12-12T13:57:13.878Z,-0.26
2022-12-12T13:59:32.034Z,-0.27
2022-12-12T14:01:39.681Z,-0.30
2022-12-12T14:03:47.207Z,-0.35
2022-12-12T14:05:53.895Z,-0.36
2022-12-12T14:08:05.837Z,-0.32
2022-12-12T14:10:24.495Z,-0.32
2022-12-12T14:12:32.349Z,-0.31
2022-12-12T14:14:38.287Z,-0.38
2022-12-12T14:16:43.157Z,-0.41
2022-12-12T14:19:00.821Z,-0.40
2022-12-12T14:21:10.073Z,-0.42
2022-12-12T14:23:32.789Z,-0.41
2022-12-12T14:25:38.937Z,-0.44
2022-12-12T14:28:16.221Z,-0.49
2022-12-12T14:30:23.463Z,-0.50
2022-12-12T14:32:46.507Z,-0.51
2022-12-12T14:35:01.979Z,-0.52
2022-12-12T14:37:38.847Z,-0.52
2022-12-12T14:40:02.780Z,-0.53
2022-12-12T14:42:22.811Z,-0.52
2022-12-12T14:44:36.901Z,-0.51
2022-12-12T14:46:43.703Z,-0.52
2022-12-12T14:48:48.734Z,-0.53
2022-12-12T14:51:04.813Z,-0.56
2022-12-12T14:53:18.278Z,-0.59
2022-12-12T14:55:23.237Z,-0.62
2022-12-12T14:57:28.282Z,-0.63
2022-12-12T14:59:36.802Z,-0.63
2022-12-12T15:01:44.949Z,-0.63
2022-12-12T15:03:51.484Z,-0.65
2022-12-12T15:06:30.690Z,-0.63
2022-12-12T15:08:35.489Z,-0.62
2022-12-12T15:10:40.258Z,-0.62
2022-12-12T15:12:46.164Z,-0.59
2022-12-12T15:14:56.418Z,-0.56
2022-12-12T15:17:05.744Z,-0.52
2022-12-12T15:19:16.788Z,-0.50
2022-12-12T15:21:21.614Z,-0.46
2022-12-12T15:23:26.541Z,-0.44
2022-12-12T15:25:33.707Z,-0.45
2022-12-12T15:27:47.013Z,-0.45
2022-12-12T15:29:54.937Z,-0.45
2022-12-12T15:32:02.719Z,-0.45
2022-12-12T15:34:35.605Z,-0.46
2022-12-12T15:36:40.386Z,-0.44
2022-12-12T15:38:46.077Z,-0.44
2022-12-12T15:40:52.558Z,-0.43
2022-12-12T15:42:58.939Z,-0.43
2022-12-12T15:45:05.299Z,-0.42
2022-12-12T15:47:13.352Z,-0.43
2022-12-12T15:49:40.023Z,-0.44
2022-12-12T15:51:45.492Z,-0.43
2022-12-12T15:53:52.846Z,-0.43
2022-12-12T15:56:00.713Z,-0.42
2022-12-12T15:58:06.003Z,-0.44
2022-12-12T16:00:27.441Z,-0.45
2022-12-12T16:02:34.168Z,-0.45
2022-12-12T16:04:52.785Z,-0.45
2022-12-12T16:07:22.210Z,-0.45
2022-12-12T16:09:30.026Z,-0.44
2022-12-12T16:11:43.140Z,-0.46
2022-12-12T16:13:47.818Z,-0.48
2022-12-12T16:15:52.633Z,-0.48
2022-12-12T16:18:05.417Z,-0.47
2022-12-12T16:20:14.116Z,-0.45
2022-12-12T16:22:28.389Z,-0.45
2022-12-12T16:24:43.938Z,-0.46
2022-12-12T16:26:48.574Z,-0.51
2022-12-12T16:28:53.470Z,-0.51
2022-12-12T16:31:00.556Z,-0.54
2022-12-12T16:33:20.452Z,-0.55
2022-12-12T16:35:26.143Z,-0.57
2022-12-12T16:37:30.956Z,-0.57
2022-12-12T16:39:35.663Z,-0.58
2022-12-12T16:41:41.281Z,-0.58
2022-12-12T16:43:46.419Z,-0.58
2022-12-12T16:45:54.081Z,-0.60
2022-12-12T16:47:59.587Z,-0.62
2022-12-12T16:50:06.075Z,-0.62
2022-12-12T16:52:11.695Z,-0.62
2022-12-12T16:54:19.053Z,-0.61
2022-12-12T16:56:24.073Z,-0.59
2022-12-12T16:58:28.778Z,-0.59
2022-12-12T17:00:33.490Z,-0.60
2022-12-12T17:02:39.018Z,-0.60
2022-12-12T17:04:46.862Z,-0.60
2022-12-12T17:06:51.807Z,-0.59
2022-12-12T17:08:59.857Z,-0.60
2022-12-12T17:11:10.187Z,-0.61
2022-12-12T17:13:17.502Z,-0.62
2022-12-12T17:15:24.212Z,-0.64
2022-12-12T17:17:29.628Z,-0.64
2022-12-12T17:19:34.589Z,-0.64
2022-12-12T17:21:39.733Z,-0.64
2022-12-12T17:23:44.408Z,-0.64
2022-12-12T17:25:49.492Z,-0.65
2022-12-12T17:27:55.127Z,-0.65
2022-12-12T17:30:00.508Z,-0.64
2022-12-12T17:32:05.763Z,-0.65
2022-12-12T17:34:12.041Z,-0.67
2022-12-12T17:36:17.252Z,-0.68
2022-12-12T17:38:22.344Z,-0.68
2022-12-12T17:40:27.138Z,-0.71
2022-12-12T17:42:33.319Z,-0.72
2022-12-12T17:44:39.696Z,-0.75
2022-12-12T17:46:44.422Z,-0.77
2022-12-12T17:48:49.431Z,-0.78
2022-12-12T17:51:01.201Z,-0.78
2022-12-12T17:53:08.200Z,-0.80
2022-12-12T17:55:53.006Z,-0.81
2022-12-12T17:57:39.416Z,-0.80
2022-12-12T17:59:45.496Z,-0.81
2022-12-12T18:01:50.436Z,-0.83
2022-12-12T18:03:56.402Z,-0.84
2022-12-12T18:06:02.666Z,-0.81
2022-12-12T18:08:08.063Z,-0.82
2022-12-12T18:10:13.697Z,-0.83
2022-12-12T18:12:19.073Z,-0.85
2022-12-12T18:14:24.975Z,-0.83
2022-12-12T18:16:32.991Z,-0.84
2022-12-12T18:18:39.047Z,-0.83
2022-12-12T18:20:44.570Z,-0.83
2022-12-12T18:22:53.973Z,-0.84
2022-12-12T18:24:59.368Z,-0.85
2022-12-12T18:27:04.927Z,-0.88
2022-12-12T18:29:13.536Z,-0.90
2022-12-12T18:31:20.609Z,-0.92
2022-12-12T18:33:25.751Z,-0.93
2022-12-12T18:35:32.009Z,-0.93
2022-12-12T18:37:37.961Z,-0.94
2022-12-12T18:39:43.970Z,-0.94
2022-12-12T18:41:50.322Z,-0.94
2022-12-12T18:43:57.355Z,-0.93
2022-12-12T18:46:06.320Z,-0.93
2022-12-12T18:48:16.138Z,-0.95
2022-12-12T18:50:22.337Z,-0.96
2022-12-12T18:52:29.447Z,-0.98
2022-12-12T18:54:34.937Z,-1.00
2022-12-12T18:56:41.511Z,-1.03
2022-12-12T18:58:48.549Z,-1.04
2022-12-12T19:00:56.122Z,-1.04
2022-12-12T19:03:02.779Z,-1.04
2022-12-12T19:05:09.729Z,-1.05
2022-12-12T19:07:17.541Z,-1.07
2022-12-12T19:09:23.698Z,-1.08
2022-12-12T19:11:29.641Z,-1.09
2022-12-12T19:13:36.903Z,-1.10
2022-12-12T19:15:44.636Z,-1.11
2022-12-12T19:17:51.227Z,-1.12
2022-12-12T19:19:57.551Z,-1.13
2022-12-12T19:22:18.578Z,-1.12
2022-12-12T19:24:29.278Z,-1.11
2022-12-12T19:26:35.174Z,-1.10
2022-12-12T19:28:41.702Z,-1.09
2022-12-12T19:30:48.228Z,-1.07
2022-12-12T19:32:54.265Z,-1.06
2022-12-12T19:35:01.531Z,-1.04
2022-12-12T19:37:08.938Z,-1.01
2022-12-12T19:39:15.095Z,-0.99
2022-12-12T19:41:25.568Z,-0.98
2022-12-12T19:43:33.150Z,-0.98
2022-12-12T19:45:43.937Z,-0.97
2022-12-12T19:47:50.212Z,-0.97
2022-12-12T19:49:55.591Z,-0.99
2022-12-12T19:52:02.140Z,-1.00
2022-12-12T19:54:11.148Z,-1.01
2022-12-12T19:56:19.580Z,-1.00
2022-12-12T19:58:25.214Z,-0.99
2022-12-12T20:00:31.515Z,-0.97
2022-12-12T20:02:40.608Z,-0.94
2022-12-12T20:04:48.800Z,-0.93
2022-12-12T20:06:54.739Z,-0.93
2022-12-12T20:09:01.296Z,-0.93
2022-12-12T20:11:09.010Z,-0.95
2022-12-12T20:13:14.438Z,-0.96
2022-12-12T20:15:25.010Z,-0.98
2022-12-12T20:17:37.969Z,-0.99
2022-12-12T20:19:46.129Z,-1.03
2022-12-12T20:22:00.860Z,-1.04
2022-12-12T20:24:08.338Z,-1.07
2022-12-12T20:26:17.482Z,-1.07
2022-12-12T20:28:23.602Z,-1.08
2022-12-12T20:30:29.812Z,-1.09
2022-12-12T20:32:37.362Z,-1.09
2022-12-12T20:34:44.821Z,-1.11
2022-12-12T20:36:50.785Z,-1.12
2022-12-12T20:38:58.064Z,-1.14
2022-12-12T20:41:08.434Z,-1.14
2022-12-12T20:43:14.169Z,-1.14
2022-12-12T20:45:19.715Z,-1.16
2022-12-12T20:47:25.071Z,-1.18
2022-12-12T20:49:36.120Z,-1.19
2022-12-12T20:51:59.164Z,-1.22
2022-12-12T20:54:07.663Z,-1.23
2022-12-12T20:56:16.546Z,-1.26
2022-12-12T20:58:26.905Z,-1.25
2022-12-12T21:00:32.409Z,-1.27
2022-12-12T21:02:40.263Z,-1.26
2022-12-12T21:04:45.814Z,-1.27
2022-12-12T21:06:51.564Z,-1.28
2022-12-12T21:09:02.286Z,-1.28
2022-12-12T21:11:08.123Z,-1.29
2022-12-12T21:13:13.594Z,-1.30
2022-12-12T21:15:18.675Z,-1.28
2022-12-12T21:17:26.754Z,-1.27
2022-12-12T21:19:32.815Z,-1.26
2022-12-12T21:21:37.688Z,-1.25
2022-12-12T21:23:43.763Z,-1.23
2022-12-12T21:25:49.164Z,-1.24
2022-12-12T21:27:54.425Z,-1.25
2022-12-12T21:29:59.525Z,-1.22
2022-12-12T21:32:04.924Z,-1.22
2022-12-12T21:34:10.189Z,-1.21
2022-12-12T21:36:17.135Z,-1.21
2022-12-12T21:38:22.224Z,-1.21
2022-12-12T21:40:26.948Z,-1.20
2022-12-12T21:42:31.778Z,-1.21
2022-12-12T21:44:38.985Z,-1.20
2022-12-12T21:46:47.579Z,-1.21
2022-12-12T21:48:52.968Z,-1.21
2022-12-12T21:51:01.386Z,-1.22
2022-12-12T21:53:06.141Z,-1.22
2022-12-12T21:55:11.161Z,-1.22
2022-12-12T21:57:20.666Z,-1.22
2022-12-12T21:59:28.752Z,-1.23
2022-12-12T22:01:33.582Z,-1.24
2022-12-12T22:03:38.645Z,-1.23
2022-12-12T22:05:43.359Z,-1.25
2022-12-12T22:07:48.441Z,-1.25
2022-12-12T22:09:57.902Z,-1.25
2022-12-12T22:12:18.575Z,-1.26
2022-12-12T22:14:24.101Z,-1.27
2022-12-12T22:16:28.979Z,-1.28
2022-12-12T22:18:33.822Z,-1.30
2022-12-12T22:20:38.541Z,-1.33
2022-12-12T22:22:43.296Z,-1.33
2022-12-12T22:24:47.950Z,-1.34
2022-12-12T22:26:52.738Z,-1.35
2022-12-12T22:28:59.027Z,-1.36
2022-12-12T22:31:06.870Z,-1.39
2022-12-12T22:33:11.635Z,-1.41
2022-12-12T22:35:16.710Z,-1.43
2022-12-12T22:37:21.398Z,-1.43
2022-12-12T22:39:27.590Z,-1.43
2022-12-12T22:41:32.619Z,-1.44
2022-12-12T22:43:37.361Z,-1.45
2022-12-12T22:45:41.965Z,-1.45
2022-12-12T22:47:46.665Z,-1.46
2022-12-12T22:49:51.567Z,-1.46
2022-12-12T22:51:57.190Z,-1.47
2022-12-12T22:54:03.958Z,-1.47
2022-12-12T22:56:08.818Z,-1.49
2022-12-12T22:58:13.459Z,-1.51
2022-12-12T23:00:19.942Z,-1.53
2022-12-12T23:02:25.328Z,-1.55
2022-12-12T23:04:30.177Z,-1.56
2022-12-12T23:06:36.129Z,-1.59
2022-12-12T23:08:41.454Z,-1.62
2022-12-12T23:10:46.220Z,-1.64
2022-12-12T23:12:51.044Z,-1.66
2022-12-12T23:14:55.709Z,-1.66
2022-12-12T23:17:00.384Z,-1.67
2022-12-12T23:19:08.941Z,-1.67
2022-12-12T23:21:16.968Z,-1.70
2022-12-12T23:23:22.162Z,-1.71
2022-12-12T23:25:26.796Z,-1.72
2022-12-12T23:27:31.576Z,-1.70
2022-12-12T23:29:36.302Z,-1.71
2022-12-12T23:31:41.432Z,-1.72
2022-12-12T23:33:46.708Z,-1.73
2022-12-12T23:35:52.264Z,-1.73
2022-12-12T23:37:57.325Z,-1.73
2022-12-12T23:40:02.043Z,-1.73
2022-12-12T23:42:06.884Z,-1.75
2022-12-12T23:44:14.528Z,-1.75
2022-12-12T23:46:19.473Z,-1.79
2022-12-12T23:48:24.524Z,-1.81
2022-12-12T23:50:29.520Z,-1.80
2022-12-12T23:52:34.186Z,-1.80
2022-12-12T23:54:38.913Z,-1.82
2022-12-12T23:56:44.076Z,-1.83
2022-12-12T23:58:48.708Z,-1.82
